sensor_id;sensor_type;location;lat;lon;timestamp;pressure;altitude;pressure_sealevel;temperature;humidity
31239;BME280;17871;31.584;74.450;2022-09-17T00:02:23;97288.25;;;29.72;100.00
31239;BME280;17871;31.584;74.450;2022-09-17T00:04:53;97294.22;;;29.74;100.00
31239;BME280;17871;31.584;74.450;2022-09-17T00:07:23;97295.31;;;29.72;100.00
31239;BME280;17871;31.584;74.450;2022-09-17T00:09:53;97293.81;;;29.69;100.00
31239;BME280;17871;31.584;74.450;2022-09-17T00:12:23;97295.22;;;29.73;100.00
31239;BME280;17871;31.584;74.450;2022-09-17T00:14:53;97299.94;;;29.79;100.00
31239;BME280;17871;31.584;74.450;2022-09-17T00:17:23;97299.63;;;29.73;100.00
31239;BME280;17871;31.584;74.450;2022-09-17T00:19:53;97302.09;;;29.65;100.00
31239;BME280;17871;31.584;74.450;2022-09-17T00:22:23;97304.59;;;29.66;100.00
31239;BME280;17871;31.584;74.450;2022-09-17T00:24:54;97312.66;;;29.74;100.00
31239;BME280;17871;31.584;74.450;2022-09-17T00:27:24;97317.22;;;29.72;100.00
31239;BME280;17871;31.584;74.450;2022-09-17T00:29:54;97330.53;;;29.71;100.00
31239;BME280;17871;31.584;74.450;2022-09-17T00:32:24;97328.34;;;29.76;100.00
31239;BME280;17871;31.584;74.450;2022-09-17T00:34:56;97327.63;;;29.74;100.00
31239;BME280;17871;31.584;74.450;2022-09-17T00:37:26;97335.09;;;29.69;100.00
31239;BME280;17871;31.584;74.450;2022-09-17T00:39:56;97349.53;;;29.74;100.00
31239;BME280;17871;31.584;74.450;2022-09-17T00:42:26;97344.53;;;29.71;100.00
31239;BME280;17871;31.584;74.450;2022-09-17T00:44:57;97349.63;;;29.54;100.00
31239;BME280;17871;31.584;74.450;2022-09-17T00:47:34;97356.06;;;29.70;100.00
31239;BME280;17871;31.584;74.450;2022-09-17T00:50:09;97357.31;;;29.76;100.00
31239;BME280;17871;31.584;74.450;2022-09-17T00:52:55;97354.38;;;29.69;100.00
31239;BME280;17871;31.584;74.450;2022-09-17T00:55:29;97365.31;;;29.65;100.00
31239;BME280;17871;31.584;74.450;2022-09-17T00:58:02;97366.97;;;29.66;100.00
31239;BME280;17871;31.584;74.450;2022-09-17T01:00:34;97375.94;;;29.54;100.00
31239;BME280;17871;31.584;74.450;2022-09-17T01:03:05;97379.34;;;29.45;100.00
31239;BME280;17871;31.584;74.450;2022-09-17T01:22:58;97401.13;;;29.77;100.00
31239;BME280;17871;31.584;74.450;2022-09-17T01:25:43;97396.91;;;29.85;100.00
31239;BME280;17871;31.584;74.450;2022-09-17T01:28:43;97399.56;;;29.95;100.00
31239;BME280;17871;31.584;74.450;2022-09-17T01:31:30;97411.19;;;29.83;100.00
31239;BME280;17871;31.584;74.450;2022-09-17T01:34:21;97410.50;;;29.91;100.00
31239;BME280;17871;31.584;74.450;2022-09-17T01:39:52;97410.75;;;29.88;100.00
31239;BME280;17871;31.584;74.450;2022-09-17T01:45:51;97438.44;;;30.03;100.00
31239;BME280;17871;31.584;74.450;2022-09-17T01:48:28;97437.72;;;30.01;100.00
31239;BME280;17871;31.584;74.450;2022-09-17T01:53:43;97444.69;;;30.11;100.00
31239;BME280;17871;31.584;74.450;2022-09-17T01:56:18;97456.09;;;30.21;100.00
31239;BME280;17871;31.584;74.450;2022-09-17T01:59:41;97445.28;;;30.24;100.00
31239;BME280;17871;31.584;74.450;2022-09-17T02:01:57;97446.81;;;30.27;100.00
31239;BME280;17871;31.584;74.450;2022-09-17T02:04:55;97462.41;;;30.40;100.00
31239;BME280;17871;31.584;74.450;2022-09-17T02:07:27;97461.84;;;30.36;100.00
31239;BME280;17871;31.584;74.450;2022-09-17T02:10:28;97468.13;;;30.45;100.00
31239;BME280;17871;31.584;74.450;2022-09-17T02:13:02;97468.03;;;30.46;100.00
31239;BME280;17871;31.584;74.450;2022-09-17T02:15:40;97480.31;;;30.36;100.00
31239;BME280;17871;31.584;74.450;2022-09-17T02:21:11;97488.16;;;30.66;100.00
31239;BME280;17871;31.584;74.450;2022-09-17T02:23:51;97491.25;;;30.71;100.00
31239;BME280;17871;31.584;74.450;2022-09-17T02:26:23;97487.88;;;30.69;100.00
31239;BME280;17871;31.584;74.450;2022-09-17T02:29:05;97497.38;;;30.81;100.00
31239;BME280;17871;31.584;74.450;2022-09-17T02:31:37;97503.88;;;30.77;100.00
31239;BME280;17871;31.584;74.450;2022-09-17T02:34:09;97499.72;;;30.65;100.00
31239;BME280;17871;31.584;74.450;2022-09-17T02:36:40;97490.97;;;30.65;100.00
31239;BME280;17871;31.584;74.450;2022-09-17T02:39:10;97501.53;;;30.74;100.00
31239;BME280;17871;31.584;74.450;2022-09-17T02:56:29;97526.19;;;31.23;98.96
31239;BME280;17871;31.584;74.450;2022-09-17T03:01:57;97540.41;;;31.60;97.30
31239;BME280;17871;31.584;74.450;2022-09-17T03:04:29;97538.41;;;31.72;96.72
31239;BME280;17871;31.584;74.450;2022-09-17T03:07:07;97547.91;;;31.74;96.78
31239;BME280;17871;31.584;74.450;2022-09-17T03:09:38;97554.00;;;31.65;95.78
31239;BME280;17871;31.584;74.450;2022-09-17T03:12:11;97560.94;;;31.76;94.39
31239;BME280;17871;31.584;74.450;2022-09-17T03:14:42;97561.09;;;31.84;93.99
31239;BME280;17871;31.584;74.450;2022-09-17T03:17:11;97564.28;;;31.87;93.69
31239;BME280;17871;31.584;74.450;2022-09-17T03:19:43;97573.19;;;31.77;91.68
31239;BME280;17871;31.584;74.450;2022-09-17T03:22:13;97574.28;;;31.94;91.91
31239;BME280;17871;31.584;74.450;2022-09-17T03:24:42;97580.69;;;31.81;91.82
31239;BME280;17871;31.584;74.450;2022-09-17T03:27:13;97582.91;;;31.86;92.50
31239;BME280;17871;31.584;74.450;2022-09-17T03:29:43;97584.16;;;31.82;91.32
31239;BME280;17871;31.584;74.450;2022-09-17T03:32:13;97591.81;;;31.75;91.87
31239;BME280;17871;31.584;74.450;2022-09-17T03:34:43;97594.03;;;32.09;90.68
31239;BME280;17871;31.584;74.450;2022-09-17T03:37:15;97595.44;;;31.94;91.97
31239;BME280;17871;31.584;74.450;2022-09-17T03:39:45;97595.72;;;31.91;90.88
31239;BME280;17871;31.584;74.450;2022-09-17T03:42:15;97595.41;;;32.03;91.28
31239;BME280;17871;31.584;74.450;2022-09-17T03:44:46;97595.13;;;32.16;90.91
31239;BME280;17871;31.584;74.450;2022-09-17T03:47:16;97616.94;;;32.37;90.11
31239;BME280;17871;31.584;74.450;2022-09-17T03:49:46;97613.16;;;32.39;88.55
31239;BME280;17871;31.584;74.450;2022-09-17T03:52:16;97620.53;;;32.46;87.39
31239;BME280;17871;31.584;74.450;2022-09-17T03:54:46;97625.25;;;32.52;87.58
31239;BME280;17871;31.584;74.450;2022-09-17T03:57:17;97628.97;;;32.68;87.76
31239;BME280;17871;31.584;74.450;2022-09-17T03:59:47;97641.28;;;32.60;87.70
31239;BME280;17871;31.584;74.450;2022-09-17T04:02:17;97645.41;;;32.72;87.73
31239;BME280;17871;31.584;74.450;2022-09-17T04:04:47;97646.22;;;32.72;87.48
31239;BME280;17871;31.584;74.450;2022-09-17T04:07:17;97660.06;;;32.66;86.75
31239;BME280;17871;31.584;74.450;2022-09-17T04:09:47;97668.97;;;32.65;85.72
31239;BME280;17871;31.584;74.450;2022-09-17T04:12:17;97666.66;;;32.89;85.44
31239;BME280;17871;31.584;74.450;2022-09-17T04:14:47;97664.19;;;32.78;85.13
31239;BME280;17871;31.584;74.450;2022-09-17T04:17:17;97673.50;;;32.82;85.82
31239;BME280;17871;31.584;74.450;2022-09-17T04:19:48;97672.31;;;32.95;84.81
31239;BME280;17871;31.584;74.450;2022-09-17T04:22:18;97672.22;;;32.40;87.17
31239;BME280;17871;31.584;74.450;2022-09-17T04:24:49;97660.72;;;32.68;87.12
31239;BME280;17871;31.584;74.450;2022-09-17T04:27:19;97660.06;;;32.94;85.61
31239;BME280;17871;31.584;74.450;2022-09-17T04:29:49;97666.06;;;32.96;84.92
31239;BME280;17871;31.584;74.450;2022-09-17T04:32:19;97672.56;;;33.01;84.43
31239;BME280;17871;31.584;74.450;2022-09-17T04:34:49;97680.84;;;32.88;86.09
31239;BME280;17871;31.584;74.450;2022-09-17T04:37:19;97683.84;;;33.13;85.95
31239;BME280;17871;31.584;74.450;2022-09-17T04:39:51;97689.00;;;33.14;86.27
31239;BME280;17871;31.584;74.450;2022-09-17T04:42:21;97691.81;;;33.13;84.50
31239;BME280;17871;31.584;74.450;2022-09-17T04:44:51;97696.00;;;33.33;84.51
31239;BME280;17871;31.584;74.450;2022-09-17T04:47:21;97697.28;;;33.29;84.21
31239;BME280;17871;31.584;74.450;2022-09-17T04:49:51;97693.63;;;33.57;81.18
31239;BME280;17871;31.584;74.450;2022-09-17T04:52:21;97709.22;;;33.06;79.44
31239;BME280;17871;31.584;74.450;2022-09-17T04:54:57;97720.91;;;32.66;81.04
31239;BME280;17871;31.584;74.450;2022-09-17T04:57:27;97722.34;;;32.13;79.85
31239;BME280;17871;31.584;74.450;2022-09-17T04:59:57;97731.84;;;31.56;80.75
31239;BME280;17871;31.584;74.450;2022-09-17T05:02:26;97728.00;;;31.30;80.54
31239;BME280;17871;31.584;74.450;2022-09-17T05:04:57;97731.44;;;31.51;79.79
31239;BME280;17871;31.584;74.450;2022-09-17T05:07:28;97727.31;;;31.28;80.67
31239;BME280;17871;31.584;74.450;2022-09-17T05:09:58;97726.28;;;31.59;79.60
31239;BME280;17871;31.584;74.450;2022-09-17T05:12:28;97727.19;;;31.39;79.56
31239;BME280;17871;31.584;74.450;2022-09-17T05:15:01;97721.28;;;31.16;80.04
31239;BME280;17871;31.584;74.450;2022-09-17T05:17:32;97724.09;;;31.64;80.05
31239;BME280;17871;31.584;74.450;2022-09-17T05:20:02;97726.19;;;31.61;80.00
31239;BME280;17871;31.584;74.450;2022-09-17T05:22:32;97735.38;;;31.76;79.68
31239;BME280;17871;31.584;74.450;2022-09-17T05:25:02;97735.66;;;32.02;78.25
31239;BME280;17871;31.584;74.450;2022-09-17T05:27:32;97730.66;;;31.79;77.69
31239;BME280;17871;31.584;74.450;2022-09-17T05:30:03;97735.28;;;32.25;76.56
31239;BME280;17871;31.584;74.450;2022-09-17T05:32:34;97738.09;;;32.24;76.07
31239;BME280;17871;31.584;74.450;2022-09-17T05:35:05;97734.88;;;32.11;76.21
31239;BME280;17871;31.584;74.450;2022-09-17T05:37:36;97737.25;;;32.14;75.21
31239;BME280;17871;31.584;74.450;2022-09-17T05:40:08;97735.97;;;32.27;73.65
31239;BME280;17871;31.584;74.450;2022-09-17T05:42:38;97736.81;;;32.28;73.57
31239;BME280;17871;31.584;74.450;2022-09-17T05:45:08;97735.16;;;32.27;75.70
31239;BME280;17871;31.584;74.450;2022-09-17T05:47:38;97727.63;;;32.13;75.27
31239;BME280;17871;31.584;74.450;2022-09-17T05:50:09;97726.78;;;32.12;74.83
31239;BME280;17871;31.584;74.450;2022-09-17T05:52:38;97722.31;;;32.32;75.36
31239;BME280;17871;31.584;74.450;2022-09-17T05:55:09;97719.81;;;32.40;74.32
31239;BME280;17871;31.584;74.450;2022-09-17T05:57:38;97723.31;;;32.97;73.95
31239;BME280;17871;31.584;74.450;2022-09-17T06:00:09;97732.34;;;33.04;73.77
31239;BME280;17871;31.584;74.450;2022-09-17T06:02:40;97722.75;;;33.03;72.60
31239;BME280;17871;31.584;74.450;2022-09-17T06:05:10;97721.19;;;33.10;74.25
31239;BME280;17871;31.584;74.450;2022-09-17T06:07:40;97720.53;;;33.35;72.40
31239;BME280;17871;31.584;74.450;2022-09-17T06:10:10;97712.59;;;33.35;72.62
31239;BME280;17871;31.584;74.450;2022-09-17T06:12:40;97721.41;;;33.53;72.15
31239;BME280;17871;31.584;74.450;2022-09-17T06:15:10;97717.16;;;33.60;72.54
31239;BME280;17871;31.584;74.450;2022-09-17T06:17:43;97707.78;;;33.48;71.89
31239;BME280;17871;31.584;74.450;2022-09-17T06:20:14;97705.13;;;33.75;73.19
31239;BME280;17871;31.584;74.450;2022-09-17T06:22:45;97716.09;;;33.53;72.79
31239;BME280;17871;31.584;74.450;2022-09-17T06:25:15;97713.25;;;33.37;74.44
31239;BME280;17871;31.584;74.450;2022-09-17T06:27:45;97714.44;;;33.97;74.23
31239;BME280;17871;31.584;74.450;2022-09-17T06:30:15;97715.72;;;33.93;73.46
31239;BME280;17871;31.584;74.450;2022-09-17T06:32:44;97717.66;;;34.09;72.98
31239;BME280;17871;31.584;74.450;2022-09-17T06:35:15;97723.06;;;33.81;74.16
31239;BME280;17871;31.584;74.450;2022-09-17T06:37:47;97714.34;;;34.07;72.28
31239;BME280;17871;31.584;74.450;2022-09-17T06:40:18;97710.88;;;34.24;72.47
31239;BME280;17871;31.584;74.450;2022-09-17T06:42:48;97714.50;;;34.40;72.27
31239;BME280;17871;31.584;74.450;2022-09-17T06:45:18;97714.22;;;34.26;71.11
31239;BME280;17871;31.584;74.450;2022-09-17T06:47:48;97709.00;;;34.16;73.28
31239;BME280;17871;31.584;74.450;2022-09-17T06:50:19;97708.06;;;34.43;72.43
31239;BME280;17871;31.584;74.450;2022-09-17T06:52:49;97700.41;;;34.40;72.18
31239;BME280;17871;31.584;74.450;2022-09-17T06:55:20;97708.16;;;34.59;72.40
31239;BME280;17871;31.584;74.450;2022-09-17T06:57:50;97710.63;;;34.35;72.40
31239;BME280;17871;31.584;74.450;2022-09-17T07:00:20;97703.69;;;34.34;71.71
31239;BME280;17871;31.584;74.450;2022-09-17T07:02:59;97703.06;;;34.40;71.59
31239;BME280;17871;31.584;74.450;2022-09-17T07:05:30;97697.63;;;34.67;71.55
31239;BME280;17871;31.584;74.450;2022-09-17T07:08:04;97703.53;;;34.61;70.81
31239;BME280;17871;31.584;74.450;2022-09-17T07:10:34;97699.75;;;34.20;71.64
31239;BME280;17871;31.584;74.450;2022-09-17T07:13:03;97701.75;;;34.87;70.85
31239;BME280;17871;31.584;74.450;2022-09-17T07:15:36;97699.38;;;35.10;71.40
31239;BME280;17871;31.584;74.450;2022-09-17T07:18:16;97689.78;;;34.91;69.13
31239;BME280;17871;31.584;74.450;2022-09-17T07:20:55;97696.16;;;34.73;71.09
31239;BME280;17871;31.584;74.450;2022-09-17T07:23:31;97685.94;;;35.12;70.28
31239;BME280;17871;31.584;74.450;2022-09-17T07:26:04;97696.13;;;34.99;71.18
31239;BME280;17871;31.584;74.450;2022-09-17T07:28:38;97680.66;;;35.20;68.95
31239;BME280;17871;31.584;74.450;2022-09-17T07:31:09;97671.41;;;35.32;69.86
31239;BME280;17871;31.584;74.450;2022-09-17T07:33:44;97672.50;;;35.13;69.08
31239;BME280;17871;31.584;74.450;2022-09-17T07:36:15;97676.66;;;35.16;68.44
31239;BME280;17871;31.584;74.450;2022-09-17T07:38:48;97666.81;;;35.50;67.73
31239;BME280;17871;31.584;74.450;2022-09-17T07:41:18;97668.88;;;35.30;67.40
31239;BME280;17871;31.584;74.450;2022-09-17T07:43:52;97674.50;;;35.69;66.70
31239;BME280;17871;31.584;74.450;2022-09-17T07:46:23;97670.19;;;35.84;65.06
31239;BME280;17871;31.584;74.450;2022-09-17T07:48:53;97672.84;;;35.68;65.74
31239;BME280;17871;31.584;74.450;2022-09-17T07:51:24;97663.53;;;35.97;66.09
31239;BME280;17871;31.584;74.450;2022-09-17T07:53:58;97661.56;;;35.82;66.07
31239;BME280;17871;31.584;74.450;2022-09-17T07:56:28;97667.91;;;36.06;65.62
31239;BME280;17871;31.584;74.450;2022-09-17T07:58:58;97664.59;;;36.12;63.91
31239;BME280;17871;31.584;74.450;2022-09-17T08:01:28;97657.94;;;36.16;64.33
31239;BME280;17871;31.584;74.450;2022-09-17T08:04:01;97658.44;;;36.19;65.86
31239;BME280;17871;31.584;74.450;2022-09-17T08:06:34;97646.13;;;36.18;65.13
31239;BME280;17871;31.584;74.450;2022-09-17T08:09:05;97657.59;;;36.11;65.16
31239;BME280;17871;31.584;74.450;2022-09-17T08:11:35;97649.59;;;36.03;65.17
31239;BME280;17871;31.584;74.450;2022-09-17T08:14:23;97638.97;;;36.03;64.76
31239;BME280;17871;31.584;74.450;2022-09-17T08:16:56;97643.63;;;36.17;65.26
31239;BME280;17871;31.584;74.450;2022-09-17T08:19:30;97640.91;;;36.49;64.58
31239;BME280;17871;31.584;74.450;2022-09-17T08:22:01;97629.31;;;36.34;65.03
31239;BME280;17871;31.584;74.450;2022-09-17T08:24:31;97632.94;;;36.41;63.92
31239;BME280;17871;31.584;74.450;2022-09-17T08:27:02;97629.44;;;36.40;65.62
31239;BME280;17871;31.584;74.450;2022-09-17T08:29:31;97622.13;;;36.42;66.36
31239;BME280;17871;31.584;74.450;2022-09-17T08:32:02;97623.28;;;36.48;64.68
31239;BME280;17871;31.584;74.450;2022-09-17T08:34:32;97619.31;;;36.36;64.69
31239;BME280;17871;31.584;74.450;2022-09-17T08:37:08;97625.16;;;36.23;65.35
31239;BME280;17871;31.584;74.450;2022-09-17T08:39:38;97613.66;;;36.39;65.43
31239;BME280;17871;31.584;74.450;2022-09-17T08:44:47;97609.63;;;36.59;64.49
31239;BME280;17871;31.584;74.450;2022-09-17T08:47:32;97606.63;;;36.62;65.60
31239;BME280;17871;31.584;74.450;2022-09-17T08:50:10;97597.00;;;36.45;65.22
31239;BME280;17871;31.584;74.450;2022-09-17T08:52:54;97602.88;;;36.32;66.01
31239;BME280;17871;31.584;74.450;2022-09-17T08:55:57;97602.00;;;36.48;65.85
31239;BME280;17871;31.584;74.450;2022-09-17T09:01:24;97593.28;;;36.70;64.82
31239;BME280;17871;31.584;74.450;2022-09-17T09:04:23;97589.03;;;36.37;64.55
31239;BME280;17871;31.584;74.450;2022-09-17T09:07:07;97588.19;;;36.36;65.53
31239;BME280;17871;31.584;74.450;2022-09-17T09:09:43;97586.69;;;36.42;65.34
31239;BME280;17871;31.584;74.450;2022-09-17T09:12:23;97586.34;;;36.45;64.41
31239;BME280;17871;31.584;74.450;2022-09-17T09:15:01;97580.69;;;36.48;65.10
31239;BME280;17871;31.584;74.450;2022-09-17T09:17:41;97589.03;;;36.37;63.94
31239;BME280;17871;31.584;74.450;2022-09-17T09:20:27;97586.34;;;36.45;65.40
31239;BME280;17871;31.584;74.450;2022-09-17T09:23:33;97585.34;;;36.46;64.61
31239;BME280;17871;31.584;74.450;2022-09-17T09:26:40;97580.84;;;36.47;66.03
31239;BME280;17871;31.584;74.450;2022-09-17T09:32:43;97571.72;;;36.33;66.40
31239;BME280;17871;31.584;74.450;2022-09-17T09:35:18;97570.38;;;36.45;66.31
31239;BME280;17871;31.584;74.450;2022-09-17T09:38:14;97569.03;;;36.57;66.62
31239;BME280;17871;31.584;74.450;2022-09-17T09:41:04;97562.44;;;36.21;67.21
31239;BME280;17871;31.584;74.450;2022-09-17T09:43:43;97550.44;;;36.41;67.74
31239;BME280;17871;31.584;74.450;2022-09-17T09:58:50;97544.97;;;36.34;64.49
31239;BME280;17871;31.584;74.450;2022-09-17T10:01:15;97533.03;;;36.14;65.71
31239;BME280;17871;31.584;74.450;2022-09-17T10:03:47;97529.00;;;36.26;66.28
31239;BME280;17871;31.584;74.450;2022-09-17T10:06:18;97535.53;;;36.08;65.39
31239;BME280;17871;31.584;74.450;2022-09-17T10:11:26;97533.19;;;36.13;65.22
31239;BME280;17871;31.584;74.450;2022-09-17T10:14:23;97530.88;;;36.18;65.22
31239;BME280;17871;31.584;74.450;2022-09-17T10:17:22;97526.88;;;36.14;67.68
31239;BME280;17871;31.584;74.450;2022-09-17T10:22:42;97525.38;;;36.11;66.65
31239;BME280;17871;31.584;74.450;2022-09-17T10:25:33;97521.72;;;36.04;66.80
31239;BME280;17871;31.584;74.450;2022-09-17T10:31:04;97519.09;;;36.12;65.82
31239;BME280;17871;31.584;74.450;2022-09-17T10:34:02;97520.22;;;35.93;66.84
31239;BME280;17871;31.584;74.450;2022-09-17T10:36:42;97521.75;;;35.88;67.40
31239;BME280;17871;31.584;74.450;2022-09-17T10:39:40;97521.91;;;36.03;67.58
31239;BME280;17871;31.584;74.450;2022-09-17T10:42:17;97521.91;;;35.86;67.23
31239;BME280;17871;31.584;74.450;2022-09-17T10:44:56;97528.03;;;36.03;67.70
31239;BME280;17871;31.584;74.450;2022-09-17T10:47:43;97522.88;;;36.02;68.00
31239;BME280;17871;31.584;74.450;2022-09-17T10:50:17;97514.28;;;35.75;69.05
31239;BME280;17871;31.584;74.450;2022-09-17T10:52:54;97516.59;;;35.86;69.83
31239;BME280;17871;31.584;74.450;2022-09-17T10:55:34;97518.09;;;35.57;68.63
31239;BME280;17871;31.584;74.450;2022-09-17T11:09:24;97507.28;;;35.58;70.62
31239;BME280;17871;31.584;74.450;2022-09-17T11:15:09;97513.78;;;35.72;70.87
31239;BME280;17871;31.584;74.450;2022-09-17T11:21:04;97521.94;;;35.70;69.94
31239;BME280;17871;31.584;74.450;2022-09-17T11:26:45;97520.56;;;35.58;71.11
31239;BME280;17871;31.584;74.450;2022-09-17T11:29:43;97518.94;;;35.49;70.81
31239;BME280;17871;31.584;74.450;2022-09-17T11:35:43;97524.75;;;35.36;70.92
31239;BME280;17871;31.584;74.450;2022-09-17T11:41:15;97525.72;;;35.43;71.79
31239;BME280;17871;31.584;74.450;2022-09-17T11:46:56;97525.34;;;35.14;72.81
31239;BME280;17871;31.584;74.450;2022-09-17T11:49:56;97521.56;;;35.25;72.86
31239;BME280;17871;31.584;74.450;2022-09-17T11:52:40;97525.22;;;35.24;73.67
31239;BME280;17871;31.584;74.450;2022-09-17T11:55:31;97523.53;;;35.15;73.14
31239;BME280;17871;31.584;74.450;2022-09-17T11:58:11;97530.16;;;35.11;73.97
31239;BME280;17871;31.584;74.450;2022-09-17T12:00:57;97528.50;;;35.10;74.48
31239;BME280;17871;31.584;74.450;2022-09-17T12:03:40;97532.78;;;35.03;73.93
31239;BME280;17871;31.584;74.450;2022-09-17T12:06:19;97527.31;;;34.96;73.65
31239;BME280;17871;31.584;74.450;2022-09-17T12:08:58;97528.47;;;34.94;74.23
31239;BME280;17871;31.584;74.450;2022-09-17T12:12:21;97520.81;;;34.99;74.93
31239;BME280;17871;31.584;74.450;2022-09-17T12:17:27;97525.91;;;34.76;75.81
31239;BME280;17871;31.584;74.450;2022-09-17T12:20:13;97526.94;;;34.83;75.55
31239;BME280;17871;31.584;74.450;2022-09-17T12:22:49;97529.56;;;34.75;76.48
31239;BME280;17871;31.584;74.450;2022-09-17T12:25:21;97544.34;;;34.77;76.51
31239;BME280;17871;31.584;74.450;2022-09-17T12:28:00;97537.53;;;34.75;76.96
31239;BME280;17871;31.584;74.450;2022-09-17T12:30:44;97545.16;;;34.78;76.85
31239;BME280;17871;31.584;74.450;2022-09-17T12:33:38;97546.97;;;34.69;78.09
31239;BME280;17871;31.584;74.450;2022-09-17T12:39:13;97540.31;;;34.65;78.94
31239;BME280;17871;31.584;74.450;2022-09-17T12:42:32;97544.66;;;34.40;79.52
31239;BME280;17871;31.584;74.450;2022-09-17T13:10:24;97553.34;;;33.99;83.05
31239;BME280;17871;31.584;74.450;2022-09-17T13:13:28;97560.19;;;34.10;83.01
31239;BME280;17871;31.584;74.450;2022-09-17T13:21:59;97558.06;;;33.87;84.09
31239;BME280;17871;31.584;74.450;2022-09-17T13:24:30;97553.91;;;33.85;84.46
31239;BME280;17871;31.584;74.450;2022-09-17T13:27:02;97566.25;;;33.76;84.25
31239;BME280;17871;31.584;74.450;2022-09-17T13:40:34;97579.06;;;33.46;86.61
31239;BME280;17871;31.584;74.450;2022-09-17T13:43:06;97579.66;;;33.22;87.23
31239;BME280;17871;31.584;74.450;2022-09-17T13:48:32;97586.63;;;33.40;86.97
31239;BME280;17871;31.584;74.450;2022-09-17T13:54:09;97593.44;;;33.43;87.29
31239;BME280;17871;31.584;74.450;2022-09-17T13:56:44;97603.66;;;33.38;87.15
31239;BME280;17871;31.584;74.450;2022-09-17T13:59:20;97604.56;;;33.29;87.21
31239;BME280;17871;31.584;74.450;2022-09-17T14:01:59;97620.47;;;33.29;87.36
31239;BME280;17871;31.584;74.450;2022-09-17T14:07:30;97622.66;;;33.33;86.09
31239;BME280;17871;31.584;74.450;2022-09-17T14:12:51;97638.84;;;33.13;86.75
31239;BME280;17871;31.584;74.450;2022-09-17T14:21:24;97645.94;;;33.30;85.38
31239;BME280;17871;31.584;74.450;2022-09-17T14:24:24;97645.88;;;33.22;86.17
31239;BME280;17871;31.584;74.450;2022-09-17T14:27:59;97661.59;;;32.96;86.69
31239;BME280;17871;31.584;74.450;2022-09-17T14:30:33;97681.72;;;32.79;87.06
31239;BME280;17871;31.584;74.450;2022-09-17T14:35:44;97691.81;;;33.13;87.02
31239;BME280;17871;31.584;74.450;2022-09-17T14:38:36;97699.53;;;33.24;87.46
31239;BME280;17871;31.584;74.450;2022-09-17T14:43:53;97705.44;;;33.08;88.66
31239;BME280;17871;31.584;74.450;2022-09-17T14:46:30;97709.09;;;32.98;89.26
31239;BME280;17871;31.584;74.450;2022-09-17T14:49:48;97719.66;;;33.07;89.35
31239;BME280;17871;31.584;74.450;2022-09-17T14:52:30;97720.50;;;33.08;89.67
31239;BME280;17871;31.584;74.450;2022-09-17T14:55:26;97721.91;;;33.12;89.85
31239;BME280;17871;31.584;74.450;2022-09-17T14:57:59;97723.63;;;32.84;90.79
31239;BME280;17871;31.584;74.450;2022-09-17T15:00:36;97724.59;;;32.93;90.92
31239;BME280;17871;31.584;74.450;2022-09-17T15:03:20;97733.88;;;33.06;90.50
31239;BME280;17871;31.584;74.450;2022-09-17T15:05:51;97754.31;;;32.86;91.02
31239;BME280;17871;31.584;74.450;2022-09-17T15:08:23;97757.34;;;32.92;91.34
31239;BME280;17871;31.584;74.450;2022-09-17T15:11:02;97755.94;;;32.87;91.15
31239;BME280;17871;31.584;74.450;2022-09-17T15:13:51;97760.16;;;32.80;91.31
31239;BME280;17871;31.584;74.450;2022-09-17T15:16:24;97762.25;;;32.77;91.61
31239;BME280;17871;31.584;74.450;2022-09-17T15:18:57;97759.75;;;32.75;92.29
31239;BME280;17871;31.584;74.450;2022-09-17T15:24:22;97764.09;;;32.67;92.27
31239;BME280;17871;31.584;74.450;2022-09-17T15:26:58;97762.84;;;32.61;92.66
31239;BME280;17871;31.584;74.450;2022-09-17T15:29:32;97763.66;;;32.52;93.25
31239;BME280;17871;31.584;74.450;2022-09-17T15:32:04;97772.16;;;32.56;92.74
31239;BME280;17871;31.584;74.450;2022-09-17T15:34:35;97767.69;;;32.56;92.26
31239;BME280;17871;31.584;74.450;2022-09-17T15:37:19;97774.25;;;32.71;91.66
31239;BME280;17871;31.584;74.450;2022-09-17T15:39:51;97777.47;;;32.65;91.48
31239;BME280;17871;31.584;74.450;2022-09-17T15:42:28;97780.50;;;32.51;91.71
31239;BME280;17871;31.584;74.450;2022-09-17T15:47:53;97784.97;;;32.41;93.02
31239;BME280;17871;31.584;74.450;2022-09-17T15:50:28;97784.97;;;32.31;92.81
31239;BME280;17871;31.584;74.450;2022-09-17T15:55:43;97785.13;;;32.49;91.95
31239;BME280;17871;31.584;74.450;2022-09-17T15:58:25;97783.72;;;32.55;92.04
31239;BME280;17871;31.584;74.450;2022-09-17T16:06:44;97789.13;;;32.34;92.75
31239;BME280;17871;31.584;74.450;2022-09-17T16:09:43;97792.63;;;32.44;93.20
31239;BME280;17871;31.584;74.450;2022-09-17T16:12:25;97798.47;;;32.38;92.86
31239;BME280;17871;31.584;74.450;2022-09-17T16:15:00;97784.84;;;32.33;92.75
31239;BME280;17871;31.584;74.450;2022-09-17T16:20:23;97803.09;;;32.36;93.05
31239;BME280;17871;31.584;74.450;2022-09-17T16:22:56;97793.63;;;32.24;92.96
31239;BME280;17871;31.584;74.450;2022-09-17T16:25:27;97794.03;;;32.10;93.22
31239;BME280;17871;31.584;74.450;2022-09-17T16:28:01;97802.81;;;32.29;93.80
31239;BME280;17871;31.584;74.450;2022-09-17T16:30:32;97800.00;;;32.21;93.59
31239;BME280;17871;31.584;74.450;2022-09-17T16:33:03;97805.56;;;32.18;93.76
31239;BME280;17871;31.584;74.450;2022-09-17T16:35:35;97806.97;;;32.13;94.24
31239;BME280;17871;31.584;74.450;2022-09-17T16:38:08;97805.28;;;32.12;94.28
31239;BME280;17871;31.584;74.450;2022-09-17T16:40:40;97811.00;;;32.17;93.95
31239;BME280;17871;31.584;74.450;2022-09-17T16:43:11;97803.09;;;32.26;93.48
31239;BME280;17871;31.584;74.450;2022-09-17T16:45:42;97799.72;;;32.05;94.12
31239;BME280;17871;31.584;74.450;2022-09-17T16:48:12;97813.78;;;32.06;94.15